sensor_id;sensor_type;location;lat;lon;timestamp;pressure;altitude;pressure_sealevel;temperature;humidity
61345;BME280;47216;42.656;23.232;2023-01-25T00:01:39;94942.06;;;3.50;72.61
61345;BME280;47216;42.656;23.232;2023-01-25T00:04:05;94934.69;;;3.47;73.44
61345;BME280;47216;42.656;23.232;2023-01-25T00:06:32;94935.75;;;3.38;72.77
61345;BME280;47216;42.656;23.232;2023-01-25T00:08:59;94936.34;;;3.40;73.18
61345;BME280;47216;42.656;23.232;2023-01-25T00:11:25;94929.88;;;3.44;72.88
61345;BME280;47216;42.656;23.232;2023-01-25T00:13:52;94931.19;;;3.40;73.23
61345;BME280;47216;42.656;23.232;2023-01-25T00:16:21;94937.69;;;3.35;73.03
61345;BME280;47216;42.656;23.232;2023-01-25T00:18:48;94928.97;;;3.36;73.32
61345;BME280;47216;42.656;23.232;2023-01-25T00:21:15;94932.00;;;3.40;73.46
61345;BME280;47216;42.656;23.232;2023-01-25T00:23:42;94936.63;;;3.45;73.83
61345;BME280;47216;42.656;23.232;2023-01-25T00:26:09;94938.84;;;3.48;73.47
61345;BME280;47216;42.656;23.232;2023-01-25T00:28:36;94937.53;;;3.52;73.25
61345;BME280;47216;42.656;23.232;2023-01-25T00:31:03;94935.91;;;3.51;72.99
61345;BME280;47216;42.656;23.232;2023-01-25T00:33:39;94936.38;;;3.54;72.86
61345;BME280;47216;42.656;23.232;2023-01-25T00:36:31;94941.91;;;3.51;73.45
61345;BME280;47216;42.656;23.232;2023-01-25T00:38:58;94939.31;;;3.51;73.20
61345;BME280;47216;42.656;23.232;2023-01-25T00:41:25;94944.63;;;3.50;73.69
61345;BME280;47216;42.656;23.232;2023-01-25T00:43:52;94941.91;;;3.51;73.65
61345;BME280;47216;42.656;23.232;2023-01-25T00:46:19;94939.31;;;3.51;73.10
61345;BME280;47216;42.656;23.232;2023-01-25T00:48:47;94936.22;;;3.56;73.50
61345;BME280;47216;42.656;23.232;2023-01-25T00:51:13;94937.28;;;3.62;73.94
61345;BME280;47216;42.656;23.232;2023-01-25T00:53:40;94943.22;;;3.62;73.26
61345;BME280;47216;42.656;23.232;2023-01-25T00:56:06;94939.31;;;3.66;72.94
61345;BME280;47216;42.656;23.232;2023-01-25T00:58:33;94937.38;;;3.68;73.56
61345;BME280;47216;42.656;23.232;2023-01-25T01:00:59;94928.22;;;3.66;73.43
61345;BME280;47216;42.656;23.232;2023-01-25T01:03:26;94931.75;;;3.65;73.79
61345;BME280;47216;42.656;23.232;2023-01-25T01:05:59;94937.09;;;3.63;73.27
61345;BME280;47216;42.656;23.232;2023-01-25T01:08:26;94931.75;;;3.65;73.10
61345;BME280;47216;42.656;23.232;2023-01-25T01:10:57;94938.84;;;3.63;73.51
61345;BME280;47216;42.656;23.232;2023-01-25T01:13:23;94940.84;;;3.61;73.56
61345;BME280;47216;42.656;23.232;2023-01-25T01:15:50;94940.38;;;3.57;73.02
61345;BME280;47216;42.656;23.232;2023-01-25T01:18:16;94933.34;;;3.51;72.95
61345;BME280;47216;42.656;23.232;2023-01-25T01:20:46;94935.91;;;3.51;73.96
61345;BME280;47216;42.656;23.232;2023-01-25T01:23:14;94932.19;;;3.53;73.93
61345;BME280;47216;42.656;23.232;2023-01-25T01:25:41;94932.47;;;3.58;73.05
61345;BME280;47216;42.656;23.232;2023-01-25T01:28:07;94921.34;;;3.58;72.94
61345;BME280;47216;42.656;23.232;2023-01-25T01:30:35;94920.53;;;3.57;73.59
61345;BME280;47216;42.656;23.232;2023-01-25T01:33:02;94917.78;;;3.59;72.43
61345;BME280;47216;42.656;23.232;2023-01-25T01:35:28;94924.44;;;3.53;72.08
61345;BME280;47216;42.656;23.232;2023-01-25T01:37:55;94914.06;;;3.47;72.33
61345;BME280;47216;42.656;23.232;2023-01-25T01:40:23;94915.19;;;3.44;72.77
61345;BME280;47216;42.656;23.232;2023-01-25T01:42:59;94919.56;;;3.44;73.02
61345;BME280;47216;42.656;23.232;2023-01-25T01:48:28;94909.25;;;3.44;73.33
61345;BME280;47216;42.656;23.232;2023-01-25T01:50:58;94908.34;;;3.36;72.29
61345;BME280;47216;42.656;23.232;2023-01-25T01:53:25;94909.22;;;3.29;72.63
61345;BME280;47216;42.656;23.232;2023-01-25T01:55:56;94904.50;;;3.32;72.64
61345;BME280;47216;42.656;23.232;2023-01-25T01:58:23;94905.13;;;3.34;72.37
61345;BME280;47216;42.656;23.232;2023-01-25T02:00:50;94911.09;;;3.35;72.64
61345;BME280;47216;42.656;23.232;2023-01-25T02:03:17;94911.28;;;3.33;72.71
61345;BME280;47216;42.656;23.232;2023-01-25T02:05:46;94915.13;;;3.38;73.25
61345;BME280;47216;42.656;23.232;2023-01-25T02:08:16;94908.81;;;3.40;72.44
61345;BME280;47216;42.656;23.232;2023-01-25T02:10:43;94911.56;;;3.39;72.97
61345;BME280;47216;42.656;23.232;2023-01-25T02:13:12;94919.91;;;3.41;73.13
61345;BME280;47216;42.656;23.232;2023-01-25T02:15:41;94915.19;;;3.44;73.00
61345;BME280;47216;42.656;23.232;2023-01-25T02:18:08;94909.88;;;3.46;73.21
61345;BME280;47216;42.656;23.232;2023-01-25T02:20:36;94904.34;;;3.49;73.23
61345;BME280;47216;42.656;23.232;2023-01-25T02:23:05;94906.31;;;3.47;73.18
61345;BME280;47216;42.656;23.232;2023-01-25T02:25:36;94907.03;;;3.41;72.48
61345;BME280;47216;42.656;23.232;2023-01-25T02:28:06;94917.34;;;3.41;72.32
61345;BME280;47216;42.656;23.232;2023-01-25T02:30:34;94910.56;;;3.40;72.96
61345;BME280;47216;42.656;23.232;2023-01-25T02:33:01;94909.97;;;3.67;78.08
61345;BME280;47216;42.656;23.232;2023-01-25T02:35:35;94905.88;;;4.03;76.13
61345;BME280;47216;42.656;23.232;2023-01-25T02:38:02;94900.31;;;4.06;71.96
61345;BME280;47216;42.656;23.232;2023-01-25T02:40:30;94904.88;;;4.04;71.68
61345;BME280;47216;42.656;23.232;2023-01-25T02:42:59;94901.25;;;3.98;71.16
61345;BME280;47216;42.656;23.232;2023-01-25T02:45:26;94899.19;;;3.93;70.82
61345;BME280;47216;42.656;23.232;2023-01-25T02:47:55;94896.69;;;3.85;70.28
61345;BME280;47216;42.656;23.232;2023-01-25T02:50:21;94908.09;;;3.76;71.19
61345;BME280;47216;42.656;23.232;2023-01-25T02:52:48;94902.31;;;3.74;71.31
61345;BME280;47216;42.656;23.232;2023-01-25T02:55:14;94909.63;;;3.70;70.97
61345;BME280;47216;42.656;23.232;2023-01-25T02:57:41;94910.31;;;3.64;70.93
61345;BME280;47216;42.656;23.232;2023-01-25T03:00:09;94911.66;;;3.60;71.34
61345;BME280;47216;42.656;23.232;2023-01-25T03:02:36;94902.69;;;3.56;71.08
61345;BME280;47216;42.656;23.232;2023-01-25T03:05:03;94903.47;;;3.56;71.15
61345;BME280;47216;42.656;23.232;2023-01-25T03:07:29;94903.47;;;3.56;70.61
61345;BME280;47216;42.656;23.232;2023-01-25T03:09:56;94907.84;;;3.56;71.09
61345;BME280;47216;42.656;23.232;2023-01-25T03:12:22;94906.59;;;3.52;70.66
61345;BME280;47216;42.656;23.232;2023-01-25T03:14:49;94902.41;;;3.51;71.04
61345;BME280;47216;42.656;23.232;2023-01-25T03:17:17;94907.91;;;3.48;70.62
61345;BME280;47216;42.656;23.232;2023-01-25T03:19:43;94905.06;;;3.43;70.71
61345;BME280;47216;42.656;23.232;2023-01-25T03:22:10;94907.66;;;3.43;71.68
61345;BME280;47216;42.656;23.232;2023-01-25T03:24:36;94903.66;;;3.40;71.28
61345;BME280;47216;42.656;23.232;2023-01-25T03:27:03;94895.72;;;3.42;70.46
61345;BME280;47216;42.656;23.232;2023-01-25T03:29:41;94905.69;;;3.45;70.91
61345;BME280;47216;42.656;23.232;2023-01-25T03:32:07;94905.69;;;3.45;71.34
61345;BME280;47216;42.656;23.232;2023-01-25T03:34:35;94898.75;;;3.45;70.94
61345;BME280;47216;42.656;23.232;2023-01-25T03:37:02;94901.16;;;3.47;70.64
61345;BME280;47216;42.656;23.232;2023-01-25T03:39:29;94908.91;;;3.47;70.79
61345;BME280;47216;42.656;23.232;2023-01-25T03:41:55;94899.13;;;3.42;70.85
61345;BME280;47216;42.656;23.232;2023-01-25T03:44:22;94895.09;;;3.40;70.72
61345;BME280;47216;42.656;23.232;2023-01-25T03:46:48;94893.69;;;3.37;71.63
61345;BME280;47216;42.656;23.232;2023-01-25T03:49:15;94893.69;;;3.37;71.26
61345;BME280;47216;42.656;23.232;2023-01-25T03:51:44;94885.94;;;3.37;71.06
61345;BME280;47216;42.656;23.232;2023-01-25T03:54:10;94888.72;;;3.35;71.08
61345;BME280;47216;42.656;23.232;2023-01-25T03:56:37;94884.19;;;3.38;71.27
61345;BME280;47216;42.656;23.232;2023-01-25T03:59:03;94886.94;;;3.36;72.21
61345;BME280;47216;42.656;23.232;2023-01-25T04:01:30;94885.16;;;3.36;71.41
61345;BME280;47216;42.656;23.232;2023-01-25T04:03:56;94888.09;;;3.33;72.29
61345;BME280;47216;42.656;23.232;2023-01-25T04:06:23;94884.88;;;3.31;71.61
61345;BME280;47216;42.656;23.232;2023-01-25T04:08:51;94882.13;;;3.33;71.48
61345;BME280;47216;42.656;23.232;2023-01-25T04:11:17;94884.25;;;3.29;72.11
61345;BME280;47216;42.656;23.232;2023-01-25T04:13:44;94882.47;;;3.30;71.61
61345;BME280;47216;42.656;23.232;2023-01-25T04:16:10;94880.88;;;3.29;71.81
61345;BME280;47216;42.656;23.232;2023-01-25T04:18:37;94882.31;;;3.31;72.09
61345;BME280;47216;42.656;23.232;2023-01-25T04:21:04;94878.56;;;3.34;72.38
61345;BME280;47216;42.656;23.232;2023-01-25T04:23:31;94880.09;;;3.28;71.40
61345;BME280;47216;42.656;23.232;2023-01-25T04:25:59;94880.09;;;3.28;71.38
61345;BME280;47216;42.656;23.232;2023-01-25T04:28:27;94877.31;;;3.30;71.06
61345;BME280;47216;42.656;23.232;2023-01-25T04:30:54;94883.78;;;3.26;71.29
61345;BME280;47216;42.656;23.232;2023-01-25T04:33:21;94888.16;;;3.25;71.39
61345;BME280;47216;42.656;23.232;2023-01-25T04:35:48;94885.56;;;3.25;71.87
61345;BME280;47216;42.656;23.232;2023-01-25T04:38:15;94891.72;;;3.24;71.62
61345;BME280;47216;42.656;23.232;2023-01-25T04:40:41;94894.28;;;3.24;71.64
61345;BME280;47216;42.656;23.232;2023-01-25T04:43:10;94894.63;;;3.21;71.81
61345;BME280;47216;42.656;23.232;2023-01-25T04:45:37;94889.78;;;3.26;72.33
61345;BME280;47216;42.656;23.232;2023-01-25T04:48:05;94892.34;;;3.26;72.29
61345;BME280;47216;42.656;23.232;2023-01-25T04:50:33;94889.41;;;3.29;72.10
61345;BME280;47216;42.656;23.232;2023-01-25T04:53:00;94886.47;;;3.32;71.46
61345;BME280;47216;42.656;23.232;2023-01-25T04:55:27;94892.25;;;3.34;71.91
61345;BME280;47216;42.656;23.232;2023-01-25T04:57:53;94893.25;;;3.33;71.76
61345;BME280;47216;42.656;23.232;2023-01-25T05:00:21;94890.84;;;3.32;71.61
61345;BME280;47216;42.656;23.232;2023-01-25T05:02:48;94887.63;;;3.30;71.77
61345;BME280;47216;42.656;23.232;2023-01-25T05:05:14;94887.81;;;3.28;71.18
61345;BME280;47216;42.656;23.232;2023-01-25T05:07:41;94888.78;;;3.27;71.70
61345;BME280;47216;42.656;23.232;2023-01-25T05:10:08;94891.19;;;3.29;71.82
61345;BME280;47216;42.656;23.232;2023-01-25T05:12:35;94893.16;;;3.27;71.65
61345;BME280;47216;42.656;23.232;2023-01-25T05:15:02;94888.34;;;3.24;71.56
61345;BME280;47216;42.656;23.232;2023-01-25T05:17:30;94886.56;;;3.24;71.28
61345;BME280;47216;42.656;23.232;2023-01-25T05:19:56;94880.44;;;3.25;70.65
61345;BME280;47216;42.656;23.232;2023-01-25T05:22:23;94885.94;;;3.22;70.96
61345;BME280;47216;42.656;23.232;2023-01-25T05:24:50;94885.78;;;3.24;70.55
61345;BME280;47216;42.656;23.232;2023-01-25T05:27:17;94879.25;;;3.13;70.58
61345;BME280;47216;42.656;23.232;2023-01-25T05:29:43;94885.84;;;3.15;70.89
61345;BME280;47216;42.656;23.232;2023-01-25T05:32:10;94881.94;;;3.20;71.10
61345;BME280;47216;42.656;23.232;2023-01-25T05:34:38;94887.88;;;3.20;71.15
61345;BME280;47216;42.656;23.232;2023-01-25T05:37:06;94891.44;;;3.19;71.35
61345;BME280;47216;42.656;23.232;2023-01-25T05:39:33;94890.19;;;3.15;70.96
61345;BME280;47216;42.656;23.232;2023-01-25T05:42:00;94890.19;;;3.15;71.48
61345;BME280;47216;42.656;23.232;2023-01-25T05:44:26;94884.25;;;3.14;70.97
61345;BME280;47216;42.656;23.232;2023-01-25T05:46:53;94884.84;;;3.16;70.75
61345;BME280;47216;42.656;23.232;2023-01-25T05:49:19;94889.47;;;3.21;70.12
61345;BME280;47216;42.656;23.232;2023-01-25T05:51:47;94887.09;;;3.20;70.35
61345;BME280;47216;42.656;23.232;2023-01-25T05:54:15;94892.25;;;3.20;70.04
61345;BME280;47216;42.656;23.232;2023-01-25T05:56:41;94890.19;;;3.15;69.58
61345;BME280;47216;42.656;23.232;2023-01-25T05:59:08;94883.78;;;3.11;69.29
61345;BME280;47216;42.656;23.232;2023-01-25T06:01:36;94890.25;;;3.07;70.50
61345;BME280;47216;42.656;23.232;2023-01-25T06:04:03;94895.94;;;3.02;70.13
61345;BME280;47216;42.656;23.232;2023-01-25T06:06:30;94892.19;;;3.05;70.05
61345;BME280;47216;42.656;23.232;2023-01-25T06:08:58;94888.72;;;2.98;70.36
61345;BME280;47216;42.656;23.232;2023-01-25T06:11:24;94897.16;;;2.91;70.02
61345;BME280;47216;42.656;23.232;2023-01-25T06:13:51;94898.84;;;2.84;71.11
61345;BME280;47216;42.656;23.232;2023-01-25T06:16:17;94901.41;;;2.84;70.48
61345;BME280;47216;42.656;23.232;2023-01-25T06:18:44;94908.78;;;2.87;70.82
61345;BME280;47216;42.656;23.232;2023-01-25T06:21:11;94906.72;;;2.83;70.82
61345;BME280;47216;42.656;23.232;2023-01-25T06:23:37;94909.81;;;2.78;71.72
61345;BME280;47216;42.656;23.232;2023-01-25T06:26:06;94910.25;;;2.82;73.14
61345;BME280;47216;42.656;23.232;2023-01-25T06:28:33;94903.78;;;2.86;73.07
61345;BME280;47216;42.656;23.232;2023-01-25T06:31:04;94898.13;;;2.90;72.45
61345;BME280;47216;42.656;23.232;2023-01-25T06:33:30;94904.53;;;2.94;71.77
61345;BME280;47216;42.656;23.232;2023-01-25T06:36:01;94900.97;;;2.95;71.17
61345;BME280;47216;42.656;23.232;2023-01-25T06:38:28;94890.25;;;2.92;71.44
61345;BME280;47216;42.656;23.232;2023-01-25T06:40:57;94896.19;;;2.92;71.11
61345;BME280;47216;42.656;23.232;2023-01-25T06:43:25;94890.59;;;2.89;70.71
61345;BME280;47216;42.656;23.232;2023-01-25T06:45:52;94901.06;;;2.87;71.45
61345;BME280;47216;42.656;23.232;2023-01-25T06:48:18;94906.47;;;2.92;70.65
61345;BME280;47216;42.656;23.232;2023-01-25T06:50:50;94899.91;;;2.90;71.61
61345;BME280;47216;42.656;23.232;2023-01-25T06:53:18;94895.38;;;2.92;71.08
61345;BME280;47216;42.656;23.232;2023-01-25T06:55:44;94888.81;;;2.89;71.16
61345;BME280;47216;42.656;23.232;2023-01-25T06:58:11;94880.38;;;2.95;71.20
61345;BME280;47216;42.656;23.232;2023-01-25T07:00:39;94896.13;;;3.01;71.63
61345;BME280;47216;42.656;23.232;2023-01-25T07:03:06;94893.09;;;2.97;71.21
61345;BME280;47216;42.656;23.232;2023-01-25T07:05:32;94888.41;;;3.01;70.30
61345;BME280;47216;42.656;23.232;2023-01-25T07:07:59;94894.88;;;2.97;70.76
61345;BME280;47216;42.656;23.232;2023-01-25T07:10:25;94892.66;;;2.93;71.35
61345;BME280;47216;42.656;23.232;2023-01-25T07:12:52;94895.56;;;2.90;71.15
61345;BME280;47216;42.656;23.232;2023-01-25T07:15:18;94896.88;;;2.86;71.16
61345;BME280;47216;42.656;23.232;2023-01-25T07:17:46;94895.63;;;2.82;71.93
61345;BME280;47216;42.656;23.232;2023-01-25T07:20:13;94898.38;;;2.81;72.35
61345;BME280;47216;42.656;23.232;2023-01-25T07:22:40;94897.22;;;2.83;72.24
61345;BME280;47216;42.656;23.232;2023-01-25T07:25:06;94907.34;;;2.85;71.20
61345;BME280;47216;42.656;23.232;2023-01-25T07:27:33;94902.72;;;2.80;71.69
61345;BME280;47216;42.656;23.232;2023-01-25T07:30:00;94902.38;;;2.83;71.12
61345;BME280;47216;42.656;23.232;2023-01-25T07:32:27;94902.72;;;2.80;71.79
61345;BME280;47216;42.656;23.232;2023-01-25T07:34:55;94913.03;;;2.80;71.72
61345;BME280;47216;42.656;23.232;2023-01-25T07:37:21;94916.28;;;2.74;72.67
61345;BME280;47216;42.656;23.232;2023-01-25T07:39:49;94920.03;;;2.63;73.07
61345;BME280;47216;42.656;23.232;2023-01-25T07:42:15;94909.22;;;2.68;72.68
61345;BME280;47216;42.656;23.232;2023-01-25T07:44:42;94913.25;;;2.70;72.76
61345;BME280;47216;42.656;23.232;2023-01-25T07:47:09;94916.97;;;2.68;73.38
61345;BME280;47216;42.656;23.232;2023-01-25T07:49:35;94912.31;;;2.63;73.36
61345;BME280;47216;42.656;23.232;2023-01-25T07:52:03;94915.22;;;2.68;73.68
61345;BME280;47216;42.656;23.232;2023-01-25T07:54:30;94908.44;;;2.67;73.59
61345;BME280;47216;42.656;23.232;2023-01-25T07:56:57;94915.66;;;2.72;73.40
61345;BME280;47216;42.656;23.232;2023-01-25T07:59:23;94916.13;;;2.76;73.43
61345;BME280;47216;42.656;23.232;2023-01-25T08:01:50;94911.75;;;2.76;72.42
61345;BME280;47216;42.656;23.232;2023-01-25T08:04:17;94913.97;;;2.79;73.33
61345;BME280;47216;42.656;23.232;2023-01-25T08:06:44;94912.03;;;2.81;71.79
61345;BME280;47216;42.656;23.232;2023-01-25T08:09:13;94913.03;;;2.80;73.40
61345;BME280;47216;42.656;23.232;2023-01-25T08:11:40;94912.84;;;2.82;73.80
61345;BME280;47216;42.656;23.232;2023-01-25T08:14:07;94917.47;;;2.86;73.64
61345;BME280;47216;42.656;23.232;2023-01-25T08:16:33;94914.63;;;2.81;73.61
61345;BME280;47216;42.656;23.232;2023-01-25T08:19:00;94906.09;;;2.81;73.25
61345;BME280;47216;42.656;23.232;2023-01-25T08:21:27;94915.41;;;2.82;73.46
61345;BME280;47216;42.656;23.232;2023-01-25T08:23:55;94915.53;;;2.88;73.92
61345;BME280;47216;42.656;23.232;2023-01-25T08:26:24;94909.41;;;2.89;74.03
61345;BME280;47216;42.656;23.232;2023-01-25T08:28:50;94909.34;;;2.98;72.97
61345;BME280;47216;42.656;23.232;2023-01-25T08:31:19;94908.38;;;2.99;72.51
61345;BME280;47216;42.656;23.232;2023-01-25T08:33:46;94904.38;;;2.96;72.64
61345;BME280;47216;42.656;23.232;2023-01-25T08:36:13;94895.03;;;2.95;73.24
61345;BME280;47216;42.656;23.232;2023-01-25T08:38:40;94902.47;;;2.90;72.64
61345;BME280;47216;42.656;23.232;2023-01-25T08:41:08;94900.44;;;2.85;73.18
61345;BME280;47216;42.656;23.232;2023-01-25T08:43:36;94902.00;;;2.86;72.82
61345;BME280;47216;42.656;23.232;2023-01-25T08:46:03;94899.78;;;2.83;73.72
61345;BME280;47216;42.656;23.232;2023-01-25T08:48:30;94901.75;;;2.81;74.36
61345;BME280;47216;42.656;23.232;2023-01-25T08:50:57;94900.16;;;2.80;74.00
61345;BME280;47216;42.656;23.232;2023-01-25T08:53:23;94904.31;;;2.81;74.20
61345;BME280;47216;42.656;23.232;2023-01-25T08:55:50;94898.00;;;2.84;74.25
61345;BME280;47216;42.656;23.232;2023-01-25T08:58:19;94902.38;;;2.83;73.67
61345;BME280;47216;42.656;23.232;2023-01-25T09:00:48;94899.44;;;2.86;73.64
61345;BME280;47216;42.656;23.232;2023-01-25T09:03:14;94894.91;;;2.88;74.59
61345;BME280;47216;42.656;23.232;2023-01-25T09:05:42;94900.53;;;2.92;74.66
61345;BME280;47216;42.656;23.232;2023-01-25T09:08:09;94901.44;;;2.99;73.87
61345;BME280;47216;42.656;23.232;2023-01-25T09:10:36;94898.22;;;2.97;73.66
61345;BME280;47216;42.656;23.232;2023-01-25T09:13:02;94908.91;;;2.94;74.00
61345;BME280;47216;42.656;23.232;2023-01-25T09:15:29;94896.53;;;2.89;74.06
61345;BME280;47216;42.656;23.232;2023-01-25T09:17:57;94893.34;;;2.87;73.63
61345;BME280;47216;42.656;23.232;2023-01-25T09:20:23;94887.03;;;2.90;74.90
61345;BME280;47216;42.656;23.232;2023-01-25T09:22:50;94887.13;;;2.97;74.76
61345;BME280;47216;42.656;23.232;2023-01-25T09:25:17;94886.78;;;3.00;74.30
61345;BME280;47216;42.656;23.232;2023-01-25T09:27:43;94875.84;;;2.98;73.52
61345;BME280;47216;42.656;23.232;2023-01-25T09:30:10;94879.69;;;3.02;74.37
61345;BME280;47216;42.656;23.232;2023-01-25T09:32:37;94874.53;;;3.02;74.37
61345;BME280;47216;42.656;23.232;2023-01-25T09:35:06;94873.72;;;3.01;73.36
61345;BME280;47216;42.656;23.232;2023-01-25T09:37:32;94866.38;;;2.98;74.55
61345;BME280;47216;42.656;23.232;2023-01-25T09:39:59;94869.38;;;3.02;73.87
61345;BME280;47216;42.656;23.232;2023-01-25T09:42:38;94856.50;;;3.02;73.98
61345;BME280;47216;42.656;23.232;2023-01-25T09:45:23;94856.34;;;3.03;73.75
61345;BME280;47216;42.656;23.232;2023-01-25T09:47:53;94853.22;;;3.08;73.56
61345;BME280;47216;42.656;23.232;2023-01-25T09:50:26;94843.72;;;3.08;73.46
61345;BME280;47216;42.656;23.232;2023-01-25T09:53:17;94845.94;;;3.11;73.57
61345;BME280;47216;42.656;23.232;2023-01-25T09:55:48;94838.66;;;3.15;74.34
61345;BME280;47216;42.656;23.232;2023-01-25T09:58:18;94835.19;;;3.23;74.09
61345;BME280;47216;42.656;23.232;2023-01-25T10:00:46;94837.34;;;3.19;74.07
61345;BME280;47216;42.656;23.232;2023-01-25T10:03:17;94829.94;;;3.16;73.44
61345;BME280;47216;42.656;23.232;2023-01-25T10:05:48;94831.56;;;3.17;73.45
61345;BME280;47216;42.656;23.232;2023-01-25T10:08:17;94822.84;;;3.18;72.90
61345;BME280;47216;42.656;23.232;2023-01-25T10:10:45;94820.44;;;3.16;nan
61345;BME280;47216;42.656;23.232;2023-01-25T10:13:16;94818.75;;;3.09;74.14
61345;BME280;47216;42.656;23.232;2023-01-25T10:15:45;94804.28;;;3.08;74.09
61345;BME280;47216;42.656;23.232;2023-01-25T10:18:16;94798.13;;;3.09;74.42
61345;BME280;47216;42.656;23.232;2023-01-25T10:20:46;94810.06;;;3.10;74.29
61345;BME280;47216;42.656;23.232;2023-01-25T10:23:22;94800.53;;;3.10;75.05
61345;BME280;47216;42.656;23.232;2023-01-25T10:25:54;94795.28;;;3.19;75.45
61345;BME280;47216;42.656;23.232;2023-01-25T10:28:25;94800.91;;;3.22;75.36
61345;BME280;47216;42.656;23.232;2023-01-25T10:30:57;94798.94;;;3.24;74.06
61345;BME280;47216;42.656;23.232;2023-01-25T10:33:25;94793.16;;;3.22;74.74
61345;BME280;47216;42.656;23.232;2023-01-25T10:35:52;94795.03;;;3.28;73.98
61345;BME280;47216;42.656;23.232;2023-01-25T10:38:24;94782.94;;;3.29;74.35
61345;BME280;47216;42.656;23.232;2023-01-25T10:40:54;94778.94;;;3.26;74.26
61345;BME280;47216;42.656;23.232;2023-01-25T10:43:22;94772.19;;;3.25;74.39
61345;BME280;47216;42.656;23.232;2023-01-25T10:45:49;94775.38;;;3.27;73.86
61345;BME280;47216;42.656;23.232;2023-01-25T10:48:17;94773.50;;;3.21;74.56
61345;BME280;47216;42.656;23.232;2023-01-25T10:50:46;94765.78;;;3.21;73.71
61345;BME280;47216;42.656;23.232;2023-01-25T10:53:30;94760.09;;;3.26;74.35
61345;BME280;47216;42.656;23.232;2023-01-25T10:55:58;94751.22;;;3.28;74.17
61345;BME280;47216;42.656;23.232;2023-01-25T10:58:30;94759.56;;;3.30;73.77
61345;BME280;47216;42.656;23.232;2023-01-25T11:00:56;94757.25;;;3.35;73.61
61345;BME280;47216;42.656;23.232;2023-01-25T11:03:27;94755.56;;;3.43;73.60
61345;BME280;47216;42.656;23.232;2023-01-25T11:05:58;94755.34;;;3.44;72.98
61345;BME280;47216;42.656;23.232;2023-01-25T11:08:26;94754.56;;;3.44;72.82
61345;BME280;47216;42.656;23.232;2023-01-25T11:10:58;94751.34;;;3.42;73.08
61345;BME280;47216;42.656;23.232;2023-01-25T11:13:26;94750.81;;;3.46;73.41
61345;BME280;47216;42.656;23.232;2023-01-25T11:16:13;94745.56;;;3.54;74.15
61345;BME280;47216;42.656;23.232;2023-01-25T11:18:48;94739.63;;;3.54;73.38
61345;BME280;47216;42.656;23.232;2023-01-25T11:21:15;94728.94;;;3.57;73.02
61345;BME280;47216;42.656;23.232;2023-01-25T11:23:56;94729.72;;;3.57;71.66
61345;BME280;47216;42.656;23.232;2023-01-25T11:26:26;94731.34;;;3.58;72.42
61345;BME280;47216;42.656;23.232;2023-01-25T11:29:05;94720.03;;;3.60;72.59
61345;BME280;47216;42.656;23.232;2023-01-25T11:31:32;94716.03;;;3.57;72.48
61345;BME280;47216;42.656;23.232;2023-01-25T11:33:58;94717.91;;;3.63;72.99
61345;BME280;47216;42.656;23.232;2023-01-25T11:36:26;94721.34;;;3.70;71.22
61345;BME280;47216;42.656;23.232;2023-01-25T11:39:08;94700.81;;;3.62;71.72
61345;BME280;47216;42.656;23.232;2023-01-25T11:41:47;94697.28;;;3.63;71.56
61345;BME280;47216;42.656;23.232;2023-01-25T11:44:21;94697.09;;;3.86;76.70
61345;BME280;47216;42.656;23.232;2023-01-25T11:46:55;94691.59;;;4.17;75.90
61345;BME280;47216;42.656;23.232;2023-01-25T11:49:27;94685.94;;;4.29;71.69
61345;BME280;47216;42.656;23.232;2023-01-25T11:52:00;94684.53;;;4.26;70.52
61345;BME280;47216;42.656;23.232;2023-01-25T11:54:38;94680.94;;;4.27;70.39
61345;BME280;47216;42.656;23.232;2023-01-25T11:57:11;94675.56;;;4.22;69.11
61345;BME280;47216;42.656;23.232;2023-01-25T11:59:51;94673.53;;;4.17;69.76
61345;BME280;47216;42.656;23.232;2023-01-25T12:02:34;94670.34;;;4.15;69.86
61345;BME280;47216;42.656;23.232;2023-01-25T12:05:13;94667.41;;;4.18;70.32
61345;BME280;47216;42.656;23.232;2023-01-25T12:07:46;94667.41;;;4.18;69.50
61345;BME280;47216;42.656;23.232;2023-01-25T12:10:19;94664.19;;;4.16;69.33
61345;BME280;47216;42.656;23.232;2023-01-25T12:12:51;94656.81;;;4.13;69.98
61345;BME280;47216;42.656;23.232;2023-01-25T12:18:10;94661.63;;;4.16;68.62
61345;BME280;47216;42.656;23.232;2023-01-25T12:20:43;94663.22;;;4.17;70.03
61345;BME280;47216;42.656;23.232;2023-01-25T12:23:25;94655.69;;;4.22;69.34
61345;BME280;47216;42.656;23.232;2023-01-25T12:26:01;94657.09;;;4.25;68.70
61345;BME280;47216;42.656;23.232;2023-01-25T12:28:32;94647.72;;;4.17;68.83
61345;BME280;47216;42.656;23.232;2023-01-25T12:31:01;94653.03;;;4.09;68.91
61345;BME280;47216;42.656;23.232;2023-01-25T12:33:32;94644.25;;;4.04;69.16
61345;BME280;47216;42.656;23.232;2023-01-25T12:36:01;94640.69;;;4.05;68.91
61345;BME280;47216;42.656;23.232;2023-01-25T12:38:34;94643.63;;;4.02;68.83
61345;BME280;47216;42.656;23.232;2023-01-25T12:41:06;94634.06;;;3.95;68.23
61345;BME280;47216;42.656;23.232;2023-01-25T12:43:39;94640.75;;;3.90;69.28
61345;BME280;47216;42.656;23.232;2023-01-25T12:46:09;94641.53;;;3.90;68.65
61345;BME280;47216;42.656;23.232;2023-01-25T12:48:39;94637.56;;;3.88;69.43
61345;BME280;47216;42.656;23.232;2023-01-25T12:51:07;94629.25;;;3.92;68.63
61345;BME280;47216;42.656;23.232;2023-01-25T12:53:35;94628.09;;;3.95;69.49
61345;BME280;47216;42.656;23.232;2023-01-25T12:56:03;94628.09;;;3.95;69.21
61345;BME280;47216;42.656;23.232;2023-01-25T12:58:32;94628.09;;;3.95;68.75
61345;BME280;47216;42.656;23.232;2023-01-25T13:01:07;94628.91;;;3.95;68.39
61345;BME280;47216;42.656;23.232;2023-01-25T13:03:38;94620.31;;;3.88;68.52
61345;BME280;47216;42.656;23.232;2023-01-25T13:06:12;94621.72;;;3.91;68.30
61345;BME280;47216;42.656;23.232;2023-01-25T13:08:43;94614.13;;;3.83;68.75
61345;BME280;47216;42.656;23.232;2023-01-25T13:11:14;94610.06;;;3.73;68.50
61345;BME280;47216;42.656;23.232;2023-01-25T13:13:44;94604.13;;;3.73;69.20